createdAt,value
2023-02-01T00:01:31.303Z,101334.06
2023-02-01T00:04:00.156Z,101333.41
2023-02-01T00:06:28.614Z,101335.22
2023-02-01T00:08:57.495Z,101322.16
2023-02-01T00:11:25.963Z,101324.91
2023-02-01T00:13:54.670Z,101321.50
2023-02-01T00:16:28.316Z,101323.50
2023-02-01T00:19:03.949Z,101328.06
2023-02-01T00:21:33.146Z,101315.97
2023-02-01T00:24:01.870Z,101320.44
2023-02-01T00:26:30.203Z,101324.91
2023-02-01T00:28:59.103Z,101320.63
2023-02-01T00:31:29.463Z,101321.69
2023-02-01T00:33:58.731Z,101315.56
2023-02-01T00:36:27.267Z,101316.72
2023-02-01T00:38:56.138Z,101322.03
2023-02-01T00:41:24.859Z,101323.06
2023-02-01T00:43:53.652Z,101328.47
2023-02-01T00:46:22.870Z,101320.63
2023-02-01T00:48:51.768Z,101307.88
2023-02-01T00:51:24.053Z,101310.44
2023-02-01T00:53:52.857Z,101312.97
2023-02-01T00:56:21.468Z,101306.25
2023-02-01T00:58:50.327Z,101316.78
2023-02-01T01:01:22.024Z,101310.81
2023-02-01T01:03:57.797Z,101319.66
2023-02-01T01:06:33.093Z,101326.88
2023-02-01T01:09:05.278Z,101327.81
2023-02-01T01:11:36.775Z,101323.56
2023-02-01T01:14:09.016Z,101327.06
2023-02-01T01:16:38.028Z,101325.47
2023-02-01T01:19:07.920Z,101316.81
2023-02-01T01:21:36.286Z,101313.31
2023-02-01T01:24:05.902Z,101312.69
2023-02-01T01:26:34.346Z,101305.75
2023-02-01T01:29:03.099Z,101310.13
2023-02-01T01:31:32.011Z,101312.88
2023-02-01T01:34:00.957Z,101305.00
2023-02-01T01:36:30.441Z,101301.50
2023-02-01T01:38:59.260Z,101297.16
2023-02-01T01:41:32.151Z,101305.22
2023-02-01T01:44:46.444Z,101311.59
2023-02-01T01:47:16.067Z,101296.28
2023-02-01T01:49:44.958Z,101311.78
2023-02-01T01:52:14.056Z,101302.31
2023-02-01T01:54:47.459Z,101311.03
2023-02-01T01:57:33.717Z,101302.31
2023-02-01T02:00:14.818Z,101294.47
2023-02-01T02:02:45.539Z,101289.25
2023-02-01T02:05:15.143Z,101273.66
2023-02-01T02:07:46.687Z,101281.53
2023-02-01T02:10:15.649Z,101273.66
2023-02-01T02:12:46.326Z,101273.75
2023-02-01T02:15:16.125Z,101266.09
2023-02-01T02:17:59.724Z,101269.50
2023-02-01T02:21:04.576Z,101279.28
2023-02-01T02:23:54.726Z,101273.41
2023-02-01T02:26:32.310Z,101269.69
2023-02-01T02:29:15.724Z,101278.63
2023-02-01T02:32:15.005Z,101274.25
2023-02-01T02:34:58.941Z,101274.75
2023-02-01T02:37:34.849Z,101274.56
2023-02-01T02:40:32.564Z,101284.31
2023-02-01T02:44:09.393Z,101271.44
2023-02-01T02:47:04.395Z,101283.75
2023-02-01T02:49:43.766Z,101282.03
2023-02-01T02:52:37.361Z,101282.91
2023-02-01T02:55:06.461Z,101271.56
2023-02-01T02:57:59.506Z,101280.44
2023-02-01T03:00:52.149Z,101285.75
2023-02-01T03:03:39.508Z,101283.19
2023-02-01T03:06:16.039Z,101279.13
2023-02-01T03:08:46.487Z,101285.09
2023-02-01T03:11:15.863Z,101283.41
2023-02-01T03:14:01.348Z,101284.44
2023-02-01T03:16:49.181Z,101280.28
2023-02-01T03:19:35.836Z,101286.34
2023-02-01T03:22:11.145Z,101287.31
2023-02-01T03:24:41.659Z,101287.41
2023-02-01T03:27:29.159Z,101286.84
2023-02-01T03:30:12.429Z,101286.00
2023-02-01T03:33:00.451Z,101289.31
2023-02-01T03:36:08.333Z,101292.03
2023-02-01T03:39:10.670Z,101292.44
2023-02-01T03:41:44.101Z,101288.84
2023-02-01T03:44:22.167Z,101287.97
2023-02-01T03:47:16.337Z,101295.09
2023-02-01T03:49:52.540Z,101293.41
2023-02-01T03:52:38.874Z,101296.06
2023-02-01T03:55:08.298Z,101285.53
2023-02-01T03:57:41.325Z,101276.09
2023-02-01T04:00:31.832Z,101290.19
2023-02-01T04:03:01.149Z,101299.81
2023-02-01T04:05:31.531Z,101281.66
2023-02-01T04:08:06.348Z,101294.72
2023-02-01T04:10:35.152Z,101301.06
2023-02-01T04:13:03.710Z,101309.13
2023-02-01T04:15:32.663Z,101297.66
2023-02-01T04:18:01.232Z,101294.16
2023-02-01T04:20:30.219Z,101297.78
2023-02-01T04:22:58.924Z,101311.00
2023-02-01T04:25:27.966Z,101301.56
2023-02-01T04:27:56.512Z,101310.44
2023-02-01T04:30:26.614Z,101309.50
2023-02-01T04:32:55.141Z,101310.53
2023-02-01T04:35:24.119Z,101314.97
2023-02-01T04:37:52.659Z,101318.56
2023-02-01T04:40:22.858Z,101316.69
2023-02-01T04:42:51.588Z,101310.34
2023-02-01T04:45:20.500Z,101318.00
2023-02-01T04:47:50.430Z,101318.47
2023-02-01T04:50:19.452Z,101316.09
2023-02-01T04:52:48.187Z,101320.25
2023-02-01T04:55:17.311Z,101313.59
2023-02-01T04:57:45.839Z,101315.88
2023-02-01T05:00:15.561Z,101311.47
2023-02-01T05:02:44.189Z,101306.13
2023-02-01T05:05:13.088Z,101302.84
2023-02-01T05:07:41.609Z,101302.25
2023-02-01T05:10:11.959Z,101308.13
2023-02-01T05:12:59.258Z,101313.38
2023-02-01T05:15:28.210Z,101315.09
2023-02-01T05:17:57.927Z,101303.84
2023-02-01T05:20:26.953Z,101312.75
2023-02-01T05:22:55.492Z,101317.78
2023-02-01T05:25:24.399Z,101306.31
2023-02-01T05:27:52.899Z,101306.22
2023-02-01T05:30:22.439Z,101307.38
2023-02-01T05:32:53.181Z,101301.34
2023-02-01T05:35:22.082Z,101293.03
2023-02-01T05:37:50.668Z,101297.28
2023-02-01T05:40:19.619Z,101305.13
2023-02-01T05:42:48.192Z,101306.41
2023-02-01T05:45:17.317Z,101299.19
2023-02-01T05:47:45.858Z,101303.66
2023-02-01T05:50:15.047Z,101316.06
2023-02-01T05:52:43.609Z,101319.47
2023-02-01T05:55:41.287Z,101310.16
2023-02-01T05:58:09.849Z,101310.09
2023-02-01T06:00:38.838Z,101306.84
2023-02-01T06:03:08.049Z,101313.81
2023-02-01T06:05:38.221Z,101325.09
2023-02-01T06:08:08.665Z,101317.50
2023-02-01T06:10:37.770Z,101315.06
2023-02-01T06:13:06.681Z,101311.34
2023-02-01T06:15:36.497Z,101303.81
2023-02-01T06:18:05.514Z,101311.16
2023-02-01T06:20:34.597Z,101301.28
2023-02-01T06:23:03.328Z,101310.84
2023-02-01T06:25:32.388Z,101309.34
2023-02-01T06:28:07.061Z,101316.84
2023-02-01T06:30:36.271Z,101309.31
2023-02-01T06:33:04.958Z,101306.41
2023-02-01T06:35:33.968Z,101301.69
2023-02-01T06:38:02.793Z,101300.47
2023-02-01T06:40:31.877Z,101301.75
2023-02-01T06:43:00.719Z,101304.59
2023-02-01T06:45:29.800Z,101306.84
2023-02-01T06:47:59.865Z,101313.84
2023-02-01T06:50:29.020Z,101324.91
2023-02-01T06:52:57.769Z,101318.94
2023-02-01T06:55:26.567Z,101331.72
2023-02-01T06:57:56.129Z,101317.47
2023-02-01T07:00:25.445Z,101325.97
2023-02-01T07:02:54.328Z,101325.34
2023-02-01T07:05:23.178Z,101326.63
2023-02-01T07:07:51.731Z,101335.00
2023-02-01T07:10:20.666Z,101337.84
2023-02-01T07:12:49.378Z,101339.53
2023-02-01T07:15:18.406Z,101337.22
2023-02-01T07:17:48.193Z,101339.03
2023-02-01T07:20:18.019Z,101334.22
2023-02-01T07:22:46.480Z,101329.84
2023-02-01T07:25:15.418Z,101333.69
2023-02-01T07:27:43.921Z,101340.78
2023-02-01T07:30:13.419Z,101334.75
2023-02-01T07:32:42.291Z,101339.31
2023-02-01T07:35:11.226Z,101341.22
2023-02-01T07:37:39.727Z,101326.34
2023-02-01T07:40:09.500Z,101338.00
2023-02-01T07:42:38.015Z,101348.09
2023-02-01T07:45:20.514Z,101344.56
2023-02-01T07:47:50.373Z,101350.19
2023-02-01T07:50:19.289Z,101350.47
2023-02-01T07:52:47.776Z,101366.38
2023-02-01T07:55:17.896Z,101373.69
2023-02-01T07:57:46.552Z,101371.03
2023-02-01T08:00:34.689Z,101373.13
2023-02-01T08:03:04.439Z,101379.41
2023-02-01T08:05:33.401Z,101372.28
2023-02-01T08:08:02.152Z,101374.28
2023-02-01T08:10:30.944Z,101370.88
2023-02-01T08:13:01.368Z,101380.66
2023-02-01T08:15:30.669Z,101372.13
2023-02-01T08:17:59.788Z,101378.09
2023-02-01T08:20:29.600Z,101363.09
2023-02-01T08:22:58.018Z,101367.56
2023-02-01T08:25:26.811Z,101363.31
2023-02-01T08:27:56.013Z,101360.66
2023-02-01T08:30:25.017Z,101357.28
2023-02-01T08:32:53.668Z,101354.06
2023-02-01T08:35:25.762Z,101358.31
2023-02-01T08:37:59.159Z,101357.53
2023-02-01T08:40:27.971Z,101365.41
2023-02-01T08:42:57.268Z,101360.19
2023-02-01T08:45:29.190Z,101370.81
2023-02-01T08:47:58.005Z,101359.44
2023-02-01T08:50:27.248Z,101364.88
2023-02-01T08:52:55.977Z,101364.75
2023-02-01T08:55:24.850Z,101363.91
2023-02-01T08:57:53.466Z,101365.72
2023-02-01T09:00:23.980Z,101359.34
2023-02-01T09:02:52.708Z,101355.78
2023-02-01T09:05:24.322Z,101361.06
2023-02-01T09:07:52.867Z,101367.31
2023-02-01T09:10:34.287Z,101362.97
2023-02-01T09:13:04.277Z,101358.22
2023-02-01T09:15:33.137Z,101357.06
2023-02-01T09:18:01.693Z,101350.81
2023-02-01T09:20:30.741Z,101357.28
2023-02-01T09:22:59.164Z,101358.13
2023-02-01T09:25:28.758Z,101361.41
2023-02-01T09:27:57.479Z,101355.72
2023-02-01T09:30:26.764Z,101348.41
2023-02-01T09:32:55.509Z,101345.75
2023-02-01T09:35:25.557Z,101349.16
2023-02-01T09:37:57.184Z,101348.50
2023-02-01T09:40:26.531Z,101364.41
2023-02-01T09:43:00.599Z,101350.41
2023-02-01T09:45:56.221Z,101371.06
2023-02-01T09:48:34.232Z,101366.50
2023-02-01T09:51:06.017Z,101362.16
2023-02-01T09:53:40.468Z,101357.72
2023-02-01T09:56:15.289Z,101363.84
2023-02-01T09:58:44.847Z,101363.47
2023-02-01T10:01:26.399Z,101363.59
2023-02-01T10:04:06.586Z,101367.81
2023-02-01T10:06:54.247Z,101365.47
2023-02-01T10:09:25.929Z,101366.13
2023-02-01T10:12:33.095Z,101361.03
2023-02-01T10:15:08.171Z,101367.81
2023-02-01T10:17:50.139Z,101365.25
2023-02-01T10:20:46.379Z,101351.16
2023-02-01T10:23:43.390Z,101347.66
2023-02-01T10:26:26.555Z,101354.03
2023-02-01T10:29:03.721Z,101348.50
2023-02-01T10:31:36.533Z,101341.28
2023-02-01T10:34:14.036Z,101325.19
2023-02-01T10:36:49.525Z,101328.22
2023-02-01T10:39:18.492Z,101332.38
2023-02-01T10:41:47.881Z,101346.94
2023-02-01T10:44:29.208Z,101344.81
2023-02-01T10:46:57.756Z,101337.94
2023-02-01T10:49:35.108Z,101343.34
2023-02-01T10:52:18.712Z,101348.50
2023-02-01T10:54:48.010Z,101337.97
2023-02-01T10:57:29.542Z,101339.34
2023-02-01T10:59:58.735Z,101340.22
2023-02-01T11:02:30.571Z,101347.84
2023-02-01T11:05:07.397Z,101334.91
2023-02-01T11:07:36.239Z,101324.56
2023-02-01T11:10:05.759Z,101329.38
2023-02-01T11:12:38.268Z,101322.53
2023-02-01T11:15:19.776Z,101324.66
2023-02-01T11:17:52.722Z,101317.09
2023-02-01T11:20:42.175Z,101334.41
2023-02-01T11:23:18.952Z,101335.94
2023-02-01T11:26:00.469Z,101333.53
2023-02-01T11:28:32.430Z,101329.34
2023-02-01T11:31:07.385Z,101337.09
2023-02-01T11:33:38.658Z,101328.56
2023-02-01T11:36:31.796Z,101338.84
2023-02-01T11:39:11.153Z,101327.75
2023-02-01T11:42:02.977Z,101338.06
2023-02-01T11:44:36.028Z,101329.34
2023-02-01T11:47:28.132Z,101319.72
2023-02-01T11:50:01.023Z,101314.66
2023-02-01T11:52:57.289Z,101307.69
2023-02-01T11:55:31.835Z,101302.13
2023-02-01T11:58:12.931Z,101294.94
2023-02-01T12:00:48.786Z,101289.13
2023-02-01T12:03:53.670Z,101284.03
2023-02-01T12:06:25.967Z,101279.66
2023-02-01T12:09:31.741Z,101277.63
2023-02-01T12:12:07.147Z,101270.19
2023-02-01T12:14:55.788Z,101263.31
2023-02-01T12:18:01.141Z,101263.22
2023-02-01T12:20:58.750Z,101260.69
2023-02-01T12:24:12.601Z,101256.81
2023-02-01T12:26:56.186Z,101254.34
2023-02-01T12:29:45.738Z,101244.34
2023-02-01T12:32:46.159Z,101246.38
2023-02-01T12:35:40.662Z,101242.97
2023-02-01T12:38:22.869Z,101239.59
2023-02-01T12:41:24.094Z,101244.91
2023-02-01T12:44:32.619Z,101229.06
2023-02-01T12:47:22.636Z,101222.38
2023-02-01T12:50:06.380Z,101225.78
2023-02-01T12:52:54.948Z,101226.00
2023-02-01T12:55:41.701Z,101228.66
2023-02-01T12:58:44.298Z,101228.28
2023-02-01T13:01:36.817Z,101226.00
2023-02-01T13:04:17.609Z,101212.44
2023-02-01T13:07:09.251Z,101214.38
2023-02-01T13:09:48.762Z,101218.81
2023-02-01T13:12:27.334Z,101200.34
2023-02-01T13:15:01.860Z,101196.91
2023-02-01T13:17:33.479Z,101178.53
2023-02-01T13:20:19.956Z,101188.22
2023-02-01T13:22:56.411Z,101185.75
2023-02-01T13:25:51.773Z,101173.66
2023-02-01T13:28:48.791Z,101174.59
2023-02-01T13:32:19.402Z,101178.25
2023-02-01T13:35:17.263Z,101172.28
2023-02-01T13:38:16.763Z,101170.59
2023-02-01T13:41:30.082Z,101164.44
2023-02-01T13:44:15.372Z,101167.53
2023-02-01T13:46:47.643Z,101167.53
2023-02-01T13:49:26.515Z,101155.44
2023-02-01T13:51:57.400Z,101162.22
2023-02-01T13:54:39.259Z,101157.25
2023-02-01T13:57:38.820Z,101154.91
2023-02-01T14:00:31.649Z,101156.84
2023-02-01T14:03:03.706Z,101152.34
2023-02-01T14:05:32.734Z,101143.06
2023-02-01T14:08:26.048Z,101140.25
2023-02-01T14:10:59.515Z,101143.06
2023-02-01T14:13:42.303Z,101142.19
2023-02-01T14:16:17.874Z,101136.25
2023-02-01T14:18:47.514Z,101137.94
2023-02-01T14:21:33.392Z,101139.66
2023-02-01T14:24:11.325Z,101143.38
2023-02-01T14:26:43.868Z,101139.88
2023-02-01T14:29:22.252Z,101141.78
2023-02-01T14:32:13.983Z,101128.63
2023-02-01T14:34:55.962Z,101129.91
2023-02-01T14:37:33.151Z,101119.28
2023-02-01T14:40:12.186Z,101112.41
2023-02-01T14:42:43.883Z,101109.09
2023-02-01T14:45:25.583Z,101116.97
2023-02-01T14:48:09.634Z,101119.84
2023-02-01T14:50:42.029Z,101132.25
2023-02-01T14:53:16.642Z,101131.63
2023-02-01T14:55:51.764Z,101136.09
2023-02-01T14:58:48.411Z,101137.03
2023-02-01T15:01:33.033Z,101129.31
2023-02-01T15:04:11.271Z,101133.97
2023-02-01T15:06:41.636Z,101133.16
2023-02-01T15:09:28.077Z,101131.44
2023-02-01T15:12:13.629Z,101123.81
2023-02-01T15:15:05.487Z,101114.25
2023-02-01T15:17:38.392Z,101110.00
2023-02-01T15:20:17.144Z,101117.13
2023-02-01T15:23:02.477Z,101112.03
2023-02-01T15:25:35.500Z,101111.19
2023-02-01T15:28:04.761Z,101110.53
2023-02-01T15:30:35.717Z,101099.94
2023-02-01T15:33:13.812Z,101099.41
2023-02-01T15:35:44.882Z,101098.78
2023-02-01T15:38:27.532Z,101091.91
2023-02-01T15:41:08.999Z,101104.38
2023-02-01T15:43:54.800Z,101091.53
2023-02-01T15:46:31.819Z,101091.84
2023-02-01T15:49:00.841Z,101101.84
2023-02-01T15:51:31.739Z,101104.72
2023-02-01T15:54:08.980Z,101105.84
2023-02-01T15:56:39.417Z,101104.16
2023-02-01T15:59:18.462Z,101102.59
2023-02-01T16:01:47.296Z,101109.81
2023-02-01T16:04:19.643Z,101115.31
2023-02-01T16:07:22.284Z,101121.66
2023-02-01T16:09:57.292Z,101121.88
2023-02-01T16:12:33.197Z,101122.94
2023-02-01T16:15:02.833Z,101119.53
2023-02-01T16:17:31.632Z,101120.56
2023-02-01T16:20:00.853Z,101128.66
2023-02-01T16:22:31.639Z,101128.75
2023-02-01T16:25:00.666Z,101123.66
2023-02-01T16:27:29.461Z,101120.16
2023-02-01T16:29:58.581Z,101118.44
2023-02-01T16:32:27.846Z,101118.66
2023-02-01T16:34:57.752Z,101119.59
2023-02-01T16:37:29.190Z,101122.38
2023-02-01T16:39:58.292Z,101129.47
2023-02-01T16:42:27.046Z,101127.78
2023-02-01T16:44:56.092Z,101126.06
2023-02-01T16:47:24.879Z,101131.47
2023-02-01T16:49:53.882Z,101134.97
2023-02-01T16:52:26.689Z,101135.91
2023-02-01T16:54:55.684Z,101142.19
2023-02-01T16:57:25.008Z,101138.78
2023-02-01T16:59:54.240Z,101149.50
2023-02-01T17:02:25.034Z,101146.84
2023-02-01T17:04:55.449Z,101145.25
2023-02-01T17:07:24.632Z,101149.78
2023-02-01T17:09:53.681Z,101148.94
2023-02-01T17:12:33.635Z,101144.59
2023-02-01T17:15:02.718Z,101152.16
2023-02-01T17:17:39.745Z,101147.91
2023-02-01T17:20:11.593Z,101147.22
2023-02-01T17:22:40.325Z,101144.56
2023-02-01T17:25:18.899Z,101147.25
2023-02-01T17:27:48.214Z,101152.88
2023-02-01T17:30:17.701Z,101155.78
2023-02-01T17:32:46.468Z,101154.59
2023-02-01T17:35:22.532Z,101151.00
2023-02-01T17:37:52.158Z,101161.06
2023-02-01T17:40:21.412Z,101161.06
2023-02-01T17:42:50.493Z,101159.44
2023-02-01T17:45:38.935Z,101160.72
2023-02-01T17:48:08.553Z,101157.22
2023-02-01T17:50:38.182Z,101163.03
2023-02-01T17:53:10.069Z,101162.06
2023-02-01T17:55:42.394Z,101163.97
2023-02-01T17:58:15.041Z,101162.97
2023-02-01T18:00:44.371Z,101169.28
2023-02-01T18:03:32.231Z,101162.94
2023-02-01T18:06:02.312Z,101161.06
2023-02-01T18:08:33.923Z,101165.00
2023-02-01T18:11:03.167Z,101176.63
2023-02-01T18:13:32.431Z,101158.06
2023-02-01T18:16:02.641Z,101165.38
2023-02-01T18:18:36.454Z,101178.41
2023-02-01T18:21:07.920Z,101183.97
2023-02-01T18:23:36.655Z,101168.41
2023-02-01T18:26:06.122Z,101177.34
2023-02-01T18:28:34.967Z,101180.91
2023-02-01T18:31:04.681Z,101178.13
2023-02-01T18:33:33.509Z,101186.59
2023-02-01T18:36:02.601Z,101185.38
2023-02-01T18:38:31.353Z,101175.22
2023-02-01T18:41:01.482Z,101170.63
2023-02-01T18:43:30.202Z,101177.16
2023-02-01T18:46:00.140Z,101170.88
2023-02-01T18:48:28.903Z,101176.06
2023-02-01T18:50:58.182Z,101174.59
2023-02-01T18:53:29.580Z,101176.72
2023-02-01T18:56:00.659Z,101176.09
2023-02-01T18:58:29.609Z,101180.47
2023-02-01T19:01:07.277Z,101178.88
2023-02-01T19:03:40.930Z,101180.91
2023-02-01T19:06:12.976Z,101182.97
2023-02-01T19:08:41.764Z,101180.19
2023-02-01T19:11:12.668Z,101163.50
2023-02-01T19:13:41.632Z,101176.78
2023-02-01T19:16:12.648Z,101175.38
2023-02-01T19:18:41.412Z,101178.41
2023-02-01T19:21:12.412Z,101182.16
2023-02-01T19:23:41.607Z,101191.13
2023-02-01T19:26:15.075Z,101183.06
2023-02-01T19:28:48.141Z,101188.53
2023-02-01T19:31:17.341Z,101194.09
2023-02-01T19:33:46.483Z,101198.69
2023-02-01T19:36:15.502Z,101205.72
2023-02-01T19:38:44.322Z,101207.06
2023-02-01T19:41:21.762Z,101211.31
2023-02-01T19:43:52.861Z,101207.53
2023-02-01T19:46:21.967Z,101206.19
2023-02-01T19:48:53.102Z,101204.72
2023-02-01T19:51:22.264Z,101199.00
2023-02-01T19:53:50.946Z,101193.94
2023-02-01T19:56:22.328Z,101202.13
2023-02-01T19:58:52.281Z,101202.59
2023-02-01T20:01:20.774Z,101192.31
2023-02-01T20:03:49.883Z,101196.13
2023-02-01T20:06:21.007Z,101201.44
2023-02-01T20:08:50.218Z,101203.63
2023-02-01T20:11:19.324Z,101195.13
2023-02-01T20:13:49.210Z,101189.81
2023-02-01T20:16:18.520Z,101191.00
2023-02-01T20:18:47.542Z,101194.84
2023-02-01T20:21:18.455Z,101196.88
2023-02-01T20:23:47.743Z,101193.50
2023-02-01T20:26:17.811Z,101195.53
2023-02-01T20:28:46.531Z,101199.25
2023-02-01T20:31:18.501Z,101198.59
2023-02-01T20:33:47.305Z,101190.97
2023-02-01T20:36:19.983Z,101208.84
2023-02-01T20:38:48.750Z,101200.34
2023-02-01T20:41:20.828Z,101210.34
2023-02-01T20:43:49.672Z,101214.16
2023-02-01T20:46:18.925Z,101213.66
2023-02-01T20:48:48.590Z,101219.94
2023-02-01T20:51:19.103Z,101219.19
2023-02-01T20:53:48.843Z,101218.47
2023-02-01T20:56:18.126Z,101216.09
2023-02-01T20:58:46.764Z,101228.78
2023-02-01T21:01:19.757Z,101234.41
2023-02-01T21:03:48.220Z,101228.44
2023-02-01T21:06:17.044Z,101234.72
2023-02-01T21:08:45.418Z,101219.97
2023-02-01T21:11:16.390Z,101217.53
2023-02-01T21:13:50.902Z,101220.41
2023-02-01T21:16:21.669Z,101214.47
2023-02-01T21:18:53.903Z,101213.81
2023-02-01T21:21:22.824Z,101212.97
2023-02-01T21:23:52.988Z,101218.41
2023-02-01T21:26:23.220Z,101216.81
2023-02-01T21:28:52.936Z,101210.88
2023-02-01T21:31:25.074Z,101213.63
2023-02-01T21:33:53.475Z,101216.47
2023-02-01T21:36:23.095Z,101211.28
2023-02-01T21:38:55.338Z,101210.66
2023-02-01T21:41:47.353Z,101214.25
2023-02-01T21:44:16.348Z,101211.81
2023-02-01T21:46:45.769Z,101211.91
2023-02-01T21:49:14.456Z,101219.03
2023-02-01T21:51:43.744Z,101221.78
2023-02-01T21:54:12.698Z,101230.81
2023-02-01T21:56:41.954Z,101232.84
2023-02-01T21:59:10.630Z,101231.13
2023-02-01T22:01:40.703Z,101225.81
2023-02-01T22:04:10.411Z,101221.66
2023-02-01T22:06:47.114Z,101225.50
2023-02-01T22:09:24.247Z,101221.50
2023-02-01T22:11:54.212Z,101226.72
2023-02-01T22:14:23.110Z,101227.78
2023-02-01T22:16:52.276Z,101226.16
2023-02-01T22:19:21.698Z,101230.72
2023-02-01T22:21:50.746Z,101229.03
2023-02-01T22:24:23.009Z,101227.47
2023-02-01T22:26:51.880Z,101226.72
2023-02-01T22:29:21.065Z,101235.63
2023-02-01T22:31:50.241Z,101225.09
2023-02-01T22:34:19.470Z,101227.09
2023-02-01T22:36:50.998Z,101230.72
2023-02-01T22:39:20.007Z,101233.47
2023-02-01T22:41:48.635Z,101244.16
2023-02-01T22:44:17.708Z,101246.91
2023-02-01T22:46:46.393Z,101249.69
2023-02-01T22:49:15.848Z,101240.03
2023-02-01T22:51:44.668Z,101241.00
2023-02-01T22:54:22.841Z,101233.22
2023-02-01T22:56:51.668Z,101242.16
2023-02-01T22:59:20.735Z,101242.34
2023-02-01T23:01:49.475Z,101237.03
2023-02-01T23:04:19.174Z,101240.75
2023-02-01T23:06:54.020Z,101246.16
2023-02-01T23:09:25.597Z,101254.19
2023-02-01T23:11:55.127Z,101258.66
2023-02-01T23:14:24.315Z,101257.91
2023-02-01T23:16:53.426Z,101256.09
2023-02-01T23:19:22.732Z,101247.41
2023-02-01T23:21:51.439Z,101244.84
2023-02-01T23:24:20.514Z,101244.00
2023-02-01T23:26:49.263Z,101236.22
2023-02-01T23:29:18.958Z,101239.00
2023-02-01T23:31:47.803Z,101236.38
2023-02-01T23:34:16.934Z,101239.94
2023-02-01T23:36:45.668Z,101236.53
2023-02-01T23:39:14.743Z,101237.47
2023-02-01T23:41:43.536Z,101234.97
2023-02-01T23:44:12.889Z,101226.13
2023-02-01T23:46:47.630Z,101213.84
2023-02-01T23:49:19.894Z,101219.34
2023-02-01T23:51:51.994Z,101223.69
2023-02-01T23:54:22.831Z,101224.75
2023-02-01T23:56:51.694Z,101223.88
2023-02-01T23:59:22.221Z,101219.56
